sensor_id;sensor_type;location;lat;lon;timestamp;P1;durP1;ratioP1;P2;durP2;ratioP2
18651;SDS011;9455;54.302;10.124;2022-11-20T00:00:30;3.53;;;3.27;;
18651;SDS011;9455;54.302;10.124;2022-11-20T00:02:57;5.30;;;3.20;;
18651;SDS011;9455;54.302;10.124;2022-11-20T00:05:23;2.80;;;2.60;;
18651;SDS011;9455;54.302;10.124;2022-11-20T00:07:50;3.33;;;3.03;;
18651;SDS011;9455;54.302;10.124;2022-11-20T00:10:16;3.40;;;2.93;;
18651;SDS011;9455;54.302;10.124;2022-11-20T00:12:44;2.70;;;2.50;;
18651;SDS011;9455;54.302;10.124;2022-11-20T00:15:11;2.70;;;2.43;;
18651;SDS011;9455;54.302;10.124;2022-11-20T00:17:38;5.23;;;3.17;;
18651;SDS011;9455;54.302;10.124;2022-11-20T00:20:05;3.10;;;2.90;;
18651;SDS011;9455;54.302;10.124;2022-11-20T00:22:32;3.30;;;2.80;;
18651;SDS011;9455;54.302;10.124;2022-11-20T00:24:58;4.07;;;2.90;;
18651;SDS011;9455;54.302;10.124;2022-11-20T00:27:25;4.83;;;2.90;;
18651;SDS011;9455;54.302;10.124;2022-11-20T00:29:53;5.20;;;2.90;;
18651;SDS011;9455;54.302;10.124;2022-11-20T00:32:19;3.43;;;2.83;;
18651;SDS011;9455;54.302;10.124;2022-11-20T00:34:46;4.40;;;3.20;;
18651;SDS011;9455;54.302;10.124;2022-11-20T00:37:13;3.77;;;3.07;;
18651;SDS011;9455;54.302;10.124;2022-11-20T00:39:39;3.70;;;3.17;;
18651;SDS011;9455;54.302;10.124;2022-11-20T00:42:06;8.73;;;3.20;;
18651;SDS011;9455;54.302;10.124;2022-11-20T00:44:32;4.40;;;2.67;;
18651;SDS011;9455;54.302;10.124;2022-11-20T00:47:00;3.17;;;2.77;;
18651;SDS011;9455;54.302;10.124;2022-11-20T00:49:27;5.00;;;2.60;;
18651;SDS011;9455;54.302;10.124;2022-11-20T00:51:54;3.00;;;2.70;;
18651;SDS011;9455;54.302;10.124;2022-11-20T00:54:20;4.67;;;2.80;;
18651;SDS011;9455;54.302;10.124;2022-11-20T00:56:47;3.10;;;2.80;;
18651;SDS011;9455;54.302;10.124;2022-11-20T00:59:13;3.60;;;2.73;;
18651;SDS011;9455;54.302;10.124;2022-11-20T01:01:40;3.33;;;2.67;;
18651;SDS011;9455;54.302;10.124;2022-11-20T01:04:08;5.00;;;2.37;;
18651;SDS011;9455;54.302;10.124;2022-11-20T01:06:35;3.40;;;2.70;;
18651;SDS011;9455;54.302;10.124;2022-11-20T01:09:04;7.30;;;2.70;;
18651;SDS011;9455;54.302;10.124;2022-11-20T01:11:33;3.33;;;3.10;;
18651;SDS011;9455;54.302;10.124;2022-11-20T01:14:01;3.07;;;2.70;;
18651;SDS011;9455;54.302;10.124;2022-11-20T01:16:31;4.53;;;2.77;;
18651;SDS011;9455;54.302;10.124;2022-11-20T01:19:00;3.40;;;3.10;;
18651;SDS011;9455;54.302;10.124;2022-11-20T01:21:30;3.60;;;3.20;;
18651;SDS011;9455;54.302;10.124;2022-11-20T01:23:58;6.20;;;3.20;;
18651;SDS011;9455;54.302;10.124;2022-11-20T01:26:26;7.97;;;3.03;;
18651;SDS011;9455;54.302;10.124;2022-11-20T01:28:54;7.10;;;3.00;;
18651;SDS011;9455;54.302;10.124;2022-11-20T01:31:22;4.60;;;2.57;;
18651;SDS011;9455;54.302;10.124;2022-11-20T01:33:51;3.23;;;2.93;;
18651;SDS011;9455;54.302;10.124;2022-11-20T01:36:19;3.03;;;2.50;;
18651;SDS011;9455;54.302;10.124;2022-11-20T01:38:50;5.53;;;2.83;;
18651;SDS011;9455;54.302;10.124;2022-11-20T01:41:17;5.27;;;3.33;;
18651;SDS011;9455;54.302;10.124;2022-11-20T01:43:57;3.00;;;2.70;;
18651;SDS011;9455;54.302;10.124;2022-11-20T01:46:24;3.00;;;2.80;;
18651;SDS011;9455;54.302;10.124;2022-11-20T01:48:51;3.10;;;2.90;;
18651;SDS011;9455;54.302;10.124;2022-11-20T01:51:24;3.23;;;2.70;;
18651;SDS011;9455;54.302;10.124;2022-11-20T01:53:57;3.60;;;2.70;;
18651;SDS011;9455;54.302;10.124;2022-11-20T01:56:27;4.73;;;2.33;;
18651;SDS011;9455;54.302;10.124;2022-11-20T01:58:57;2.50;;;2.30;;
18651;SDS011;9455;54.302;10.124;2022-11-20T02:01:27;2.57;;;2.37;;
18651;SDS011;9455;54.302;10.124;2022-11-20T02:03:53;2.60;;;2.40;;
18651;SDS011;9455;54.302;10.124;2022-11-20T02:06:22;5.17;;;2.33;;
18651;SDS011;9455;54.302;10.124;2022-11-20T02:08:51;6.20;;;2.67;;
18651;SDS011;9455;54.302;10.124;2022-11-20T02:11:20;2.83;;;2.60;;
18651;SDS011;9455;54.302;10.124;2022-11-20T02:13:47;3.10;;;2.40;;
18651;SDS011;9455;54.302;10.124;2022-11-20T02:16:15;3.43;;;2.57;;
18651;SDS011;9455;54.302;10.124;2022-11-20T02:18:47;2.53;;;2.33;;
18651;SDS011;9455;54.302;10.124;2022-11-20T02:21:17;2.67;;;2.33;;
18651;SDS011;9455;54.302;10.124;2022-11-20T02:23:54;4.07;;;2.43;;
18651;SDS011;9455;54.302;10.124;2022-11-20T02:26:27;2.27;;;2.17;;
18651;SDS011;9455;54.302;10.124;2022-11-20T02:28:55;4.33;;;3.33;;
18651;SDS011;9455;54.302;10.124;2022-11-20T02:31:24;4.40;;;2.33;;
18651;SDS011;9455;54.302;10.124;2022-11-20T02:33:54;2.90;;;2.63;;
18651;SDS011;9455;54.302;10.124;2022-11-20T02:36:21;5.00;;;2.40;;
18651;SDS011;9455;54.302;10.124;2022-11-20T02:38:49;2.80;;;2.60;;
18651;SDS011;9455;54.302;10.124;2022-11-20T02:41:17;6.27;;;2.73;;
18651;SDS011;9455;54.302;10.124;2022-11-20T02:43:44;4.90;;;2.20;;
18651;SDS011;9455;54.302;10.124;2022-11-20T02:46:11;2.97;;;2.40;;
18651;SDS011;9455;54.302;10.124;2022-11-20T02:48:37;2.20;;;2.10;;
18651;SDS011;9455;54.302;10.124;2022-11-20T02:51:04;2.47;;;2.27;;
18651;SDS011;9455;54.302;10.124;2022-11-20T02:53:31;2.57;;;2.47;;
18651;SDS011;9455;54.302;10.124;2022-11-20T02:55:57;6.00;;;2.30;;
18651;SDS011;9455;54.302;10.124;2022-11-20T02:58:25;2.77;;;2.33;;
18651;SDS011;9455;54.302;10.124;2022-11-20T03:00:52;3.13;;;2.27;;
18651;SDS011;9455;54.302;10.124;2022-11-20T03:03:19;3.60;;;2.20;;
18651;SDS011;9455;54.302;10.124;2022-11-20T03:05:45;3.23;;;2.70;;
18651;SDS011;9455;54.302;10.124;2022-11-20T03:08:12;2.60;;;2.40;;
18651;SDS011;9455;54.302;10.124;2022-11-20T03:10:38;2.63;;;2.03;;
18651;SDS011;9455;54.302;10.124;2022-11-20T03:13:05;2.77;;;2.37;;
18651;SDS011;9455;54.302;10.124;2022-11-20T03:15:33;2.87;;;2.47;;
18651;SDS011;9455;54.302;10.124;2022-11-20T03:18:01;2.70;;;2.50;;
18651;SDS011;9455;54.302;10.124;2022-11-20T03:20:28;2.30;;;2.20;;
18651;SDS011;9455;54.302;10.124;2022-11-20T03:22:55;6.90;;;2.30;;
18651;SDS011;9455;54.302;10.124;2022-11-20T03:25:22;4.20;;;2.57;;
18651;SDS011;9455;54.302;10.124;2022-11-20T03:27:48;5.20;;;2.50;;
18651;SDS011;9455;54.302;10.124;2022-11-20T03:30:15;2.73;;;2.53;;
18651;SDS011;9455;54.302;10.124;2022-11-20T03:32:43;6.43;;;3.00;;
18651;SDS011;9455;54.302;10.124;2022-11-20T03:35:10;4.83;;;2.03;;
18651;SDS011;9455;54.302;10.124;2022-11-20T03:37:36;7.17;;;3.57;;
18651;SDS011;9455;54.302;10.124;2022-11-20T03:40:03;17.77;;;6.63;;
18651;SDS011;9455;54.302;10.124;2022-11-20T03:42:31;3.53;;;3.20;;
18651;SDS011;9455;54.302;10.124;2022-11-20T03:45:12;3.73;;;2.67;;
18651;SDS011;9455;54.302;10.124;2022-11-20T03:47:40;3.40;;;2.57;;
18651;SDS011;9455;54.302;10.124;2022-11-20T03:50:08;2.87;;;2.50;;
18651;SDS011;9455;54.302;10.124;2022-11-20T03:52:36;2.27;;;2.17;;
18651;SDS011;9455;54.302;10.124;2022-11-20T03:55:02;5.57;;;2.70;;
18651;SDS011;9455;54.302;10.124;2022-11-20T03:57:29;2.70;;;2.50;;
18651;SDS011;9455;54.302;10.124;2022-11-20T03:59:56;7.20;;;2.53;;
18651;SDS011;9455;54.302;10.124;2022-11-20T04:02:23;2.40;;;2.17;;
18651;SDS011;9455;54.302;10.124;2022-11-20T04:04:49;3.20;;;2.40;;
18651;SDS011;9455;54.302;10.124;2022-11-20T04:07:17;4.40;;;2.60;;
18651;SDS011;9455;54.302;10.124;2022-11-20T04:09:44;2.97;;;2.50;;
18651;SDS011;9455;54.302;10.124;2022-11-20T04:12:11;2.90;;;2.77;;
18651;SDS011;9455;54.302;10.124;2022-11-20T04:14:37;2.77;;;2.57;;
18651;SDS011;9455;54.302;10.124;2022-11-20T04:17:04;2.80;;;2.60;;
18651;SDS011;9455;54.302;10.124;2022-11-20T04:19:30;3.60;;;2.53;;
18651;SDS011;9455;54.302;10.124;2022-11-20T04:21:57;2.60;;;2.40;;
18651;SDS011;9455;54.302;10.124;2022-11-20T04:24:26;2.83;;;2.63;;
18651;SDS011;9455;54.302;10.124;2022-11-20T04:26:53;2.27;;;2.17;;
18651;SDS011;9455;54.302;10.124;2022-11-20T04:29:19;2.40;;;2.30;;
18651;SDS011;9455;54.302;10.124;2022-11-20T04:31:46;3.00;;;2.70;;
18651;SDS011;9455;54.302;10.124;2022-11-20T04:34:13;3.30;;;3.07;;
18651;SDS011;9455;54.302;10.124;2022-11-20T04:36:39;2.83;;;2.63;;
18651;SDS011;9455;54.302;10.124;2022-11-20T04:39:11;3.90;;;2.33;;
18651;SDS011;9455;54.302;10.124;2022-11-20T04:41:40;3.57;;;2.67;;
18651;SDS011;9455;54.302;10.124;2022-11-20T04:44:07;5.13;;;2.77;;
18651;SDS011;9455;54.302;10.124;2022-11-20T04:46:34;3.63;;;2.80;;
18651;SDS011;9455;54.302;10.124;2022-11-20T04:49:03;2.57;;;2.37;;
18651;SDS011;9455;54.302;10.124;2022-11-20T04:51:30;4.60;;;2.80;;
18651;SDS011;9455;54.302;10.124;2022-11-20T04:53:57;6.80;;;2.57;;
18651;SDS011;9455;54.302;10.124;2022-11-20T04:56:23;2.30;;;2.20;;
18651;SDS011;9455;54.302;10.124;2022-11-20T04:58:51;2.53;;;2.33;;
18651;SDS011;9455;54.302;10.124;2022-11-20T05:01:19;4.47;;;2.60;;
18651;SDS011;9455;54.302;10.124;2022-11-20T05:03:46;2.20;;;2.03;;
18651;SDS011;9455;54.302;10.124;2022-11-20T05:06:14;4.90;;;3.13;;
18651;SDS011;9455;54.302;10.124;2022-11-20T05:08:42;3.30;;;3.00;;
18651;SDS011;9455;54.302;10.124;2022-11-20T05:11:10;2.60;;;2.40;;
18651;SDS011;9455;54.302;10.124;2022-11-20T05:13:38;2.73;;;2.43;;
18651;SDS011;9455;54.302;10.124;2022-11-20T05:16:07;3.10;;;2.50;;
18651;SDS011;9455;54.302;10.124;2022-11-20T05:18:35;2.87;;;2.17;;
18651;SDS011;9455;54.302;10.124;2022-11-20T05:21:03;1.67;;;1.60;;
18651;SDS011;9455;54.302;10.124;2022-11-20T05:23:30;2.30;;;1.87;;
18651;SDS011;9455;54.302;10.124;2022-11-20T05:25:58;1.43;;;1.43;;
18651;SDS011;9455;54.302;10.124;2022-11-20T05:28:25;1.90;;;1.70;;
18651;SDS011;9455;54.302;10.124;2022-11-20T05:30:52;1.80;;;1.70;;
18651;SDS011;9455;54.302;10.124;2022-11-20T05:33:20;1.70;;;1.70;;
18651;SDS011;9455;54.302;10.124;2022-11-20T05:35:47;1.63;;;1.63;;
18651;SDS011;9455;54.302;10.124;2022-11-20T05:38:14;1.60;;;1.50;;
18651;SDS011;9455;54.302;10.124;2022-11-20T05:40:41;1.73;;;1.70;;
18651;SDS011;9455;54.302;10.124;2022-11-20T05:43:07;1.40;;;1.40;;
18651;SDS011;9455;54.302;10.124;2022-11-20T05:45:34;1.70;;;1.67;;
18651;SDS011;9455;54.302;10.124;2022-11-20T05:48:00;1.90;;;1.80;;
18651;SDS011;9455;54.302;10.124;2022-11-20T05:50:28;2.00;;;1.83;;
18651;SDS011;9455;54.302;10.124;2022-11-20T05:52:57;1.73;;;1.70;;
18651;SDS011;9455;54.302;10.124;2022-11-20T05:55:24;1.93;;;1.83;;
18651;SDS011;9455;54.302;10.124;2022-11-20T05:57:51;1.67;;;1.57;;
18651;SDS011;9455;54.302;10.124;2022-11-20T06:00:18;2.80;;;1.80;;
18651;SDS011;9455;54.302;10.124;2022-11-20T06:02:45;2.23;;;2.13;;
18651;SDS011;9455;54.302;10.124;2022-11-20T06:05:12;2.43;;;2.20;;
18651;SDS011;9455;54.302;10.124;2022-11-20T06:07:40;2.13;;;2.03;;
18651;SDS011;9455;54.302;10.124;2022-11-20T06:10:07;2.80;;;2.70;;
18651;SDS011;9455;54.302;10.124;2022-11-20T06:12:35;2.90;;;2.67;;
18651;SDS011;9455;54.302;10.124;2022-11-20T06:15:01;3.00;;;2.80;;
18651;SDS011;9455;54.302;10.124;2022-11-20T06:17:28;3.37;;;3.00;;
18651;SDS011;9455;54.302;10.124;2022-11-20T06:19:55;2.77;;;2.57;;
18651;SDS011;9455;54.302;10.124;2022-11-20T06:22:21;6.73;;;3.10;;
18651;SDS011;9455;54.302;10.124;2022-11-20T06:24:49;4.80;;;2.93;;
18651;SDS011;9455;54.302;10.124;2022-11-20T06:27:16;2.83;;;2.63;;
18651;SDS011;9455;54.302;10.124;2022-11-20T06:29:43;3.27;;;3.00;;
18651;SDS011;9455;54.302;10.124;2022-11-20T06:32:09;4.27;;;3.43;;
18651;SDS011;9455;54.302;10.124;2022-11-20T06:34:36;3.07;;;2.53;;
18651;SDS011;9455;54.302;10.124;2022-11-20T06:37:03;4.80;;;3.00;;
18651;SDS011;9455;54.302;10.124;2022-11-20T06:39:29;4.00;;;3.43;;
18651;SDS011;9455;54.302;10.124;2022-11-20T06:41:57;2.97;;;2.87;;
18651;SDS011;9455;54.302;10.124;2022-11-20T06:44:24;3.60;;;3.30;;
18651;SDS011;9455;54.302;10.124;2022-11-20T06:46:50;3.43;;;3.20;;
18651;SDS011;9455;54.302;10.124;2022-11-20T06:49:17;3.87;;;3.27;;
18651;SDS011;9455;54.302;10.124;2022-11-20T06:51:44;3.53;;;3.23;;
18651;SDS011;9455;54.302;10.124;2022-11-20T06:54:10;8.30;;;3.83;;
18651;SDS011;9455;54.302;10.124;2022-11-20T06:56:37;5.37;;;3.47;;
18651;SDS011;9455;54.302;10.124;2022-11-20T06:59:05;3.53;;;2.97;;
18651;SDS011;9455;54.302;10.124;2022-11-20T07:01:32;3.40;;;3.10;;
18651;SDS011;9455;54.302;10.124;2022-11-20T07:04:00;4.00;;;3.50;;
18651;SDS011;9455;54.302;10.124;2022-11-20T07:06:27;4.70;;;3.53;;
18651;SDS011;9455;54.302;10.124;2022-11-20T07:08:53;3.67;;;3.10;;
18651;SDS011;9455;54.302;10.124;2022-11-20T07:11:20;4.70;;;2.90;;
18651;SDS011;9455;54.302;10.124;2022-11-20T07:13:46;2.83;;;2.63;;
18651;SDS011;9455;54.302;10.124;2022-11-20T07:16:14;3.10;;;2.90;;
18651;SDS011;9455;54.302;10.124;2022-11-20T07:18:42;3.47;;;3.10;;
18651;SDS011;9455;54.302;10.124;2022-11-20T07:21:09;4.70;;;2.30;;
18651;SDS011;9455;54.302;10.124;2022-11-20T07:23:36;3.53;;;2.73;;
18651;SDS011;9455;54.302;10.124;2022-11-20T07:26:03;2.60;;;2.40;;
18651;SDS011;9455;54.302;10.124;2022-11-20T07:28:30;2.53;;;2.30;;
18651;SDS011;9455;54.302;10.124;2022-11-20T07:30:57;4.00;;;2.53;;
18651;SDS011;9455;54.302;10.124;2022-11-20T07:33:25;2.83;;;2.10;;
18651;SDS011;9455;54.302;10.124;2022-11-20T07:35:52;1.83;;;1.83;;
18651;SDS011;9455;54.302;10.124;2022-11-20T07:38:18;3.00;;;2.13;;
18651;SDS011;9455;54.302;10.124;2022-11-20T07:40:45;2.40;;;2.13;;
18651;SDS011;9455;54.302;10.124;2022-11-20T07:43:11;1.90;;;1.80;;
18651;SDS011;9455;54.302;10.124;2022-11-20T07:45:38;3.90;;;1.93;;
18651;SDS011;9455;54.302;10.124;2022-11-20T07:48:05;1.40;;;1.40;;
18651;SDS011;9455;54.302;10.124;2022-11-20T07:50:33;1.60;;;1.50;;
18651;SDS011;9455;54.302;10.124;2022-11-20T07:53:00;2.20;;;2.10;;
18651;SDS011;9455;54.302;10.124;2022-11-20T07:55:28;1.57;;;1.47;;
18651;SDS011;9455;54.302;10.124;2022-11-20T07:57:54;1.23;;;1.23;;
18651;SDS011;9455;54.302;10.124;2022-11-20T08:00:22;3.10;;;1.27;;
18651;SDS011;9455;54.302;10.124;2022-11-20T08:02:49;0.80;;;0.80;;
18651;SDS011;9455;54.302;10.124;2022-11-20T08:05:16;1.30;;;0.70;;
18651;SDS011;9455;54.302;10.124;2022-11-20T08:07:44;0.40;;;0.40;;
18651;SDS011;9455;54.302;10.124;2022-11-20T08:10:11;0.87;;;0.60;;
18651;SDS011;9455;54.302;10.124;2022-11-20T08:12:43;0.70;;;0.70;;
18651;SDS011;9455;54.302;10.124;2022-11-20T08:15:29;0.47;;;0.47;;
18651;SDS011;9455;54.302;10.124;2022-11-20T08:17:59;0.83;;;0.70;;
18651;SDS011;9455;54.302;10.124;2022-11-20T08:20:26;5.67;;;0.77;;
18651;SDS011;9455;54.302;10.124;2022-11-20T08:22:58;0.77;;;0.77;;
18651;SDS011;9455;54.302;10.124;2022-11-20T08:25:26;1.53;;;0.80;;
18651;SDS011;9455;54.302;10.124;2022-11-20T08:27:53;0.87;;;0.70;;
18651;SDS011;9455;54.302;10.124;2022-11-20T08:30:19;1.17;;;0.90;;
18651;SDS011;9455;54.302;10.124;2022-11-20T08:32:46;1.10;;;0.73;;
18651;SDS011;9455;54.302;10.124;2022-11-20T08:35:12;1.13;;;1.13;;
18651;SDS011;9455;54.302;10.124;2022-11-20T08:37:39;0.90;;;0.90;;
18651;SDS011;9455;54.302;10.124;2022-11-20T08:40:09;3.00;;;1.20;;
18651;SDS011;9455;54.302;10.124;2022-11-20T08:42:37;1.80;;;1.20;;
18651;SDS011;9455;54.302;10.124;2022-11-20T08:45:11;0.90;;;0.90;;
18651;SDS011;9455;54.302;10.124;2022-11-20T08:47:38;1.10;;;1.00;;
18651;SDS011;9455;54.302;10.124;2022-11-20T08:50:05;1.00;;;1.00;;
18651;SDS011;9455;54.302;10.124;2022-11-20T08:52:32;0.90;;;0.90;;
18651;SDS011;9455;54.302;10.124;2022-11-20T08:54:59;1.30;;;1.20;;
18651;SDS011;9455;54.302;10.124;2022-11-20T08:57:27;0.93;;;0.93;;
18651;SDS011;9455;54.302;10.124;2022-11-20T08:59:54;1.53;;;1.10;;
18651;SDS011;9455;54.302;10.124;2022-11-20T09:02:20;1.10;;;1.10;;
18651;SDS011;9455;54.302;10.124;2022-11-20T09:04:47;1.67;;;1.17;;
18651;SDS011;9455;54.302;10.124;2022-11-20T09:07:13;1.10;;;1.10;;
18651;SDS011;9455;54.302;10.124;2022-11-20T09:09:40;2.37;;;1.17;;
18651;SDS011;9455;54.302;10.124;2022-11-20T09:12:07;1.53;;;1.43;;
18651;SDS011;9455;54.302;10.124;2022-11-20T09:14:35;1.63;;;1.50;;
18651;SDS011;9455;54.302;10.124;2022-11-20T09:17:01;1.90;;;1.80;;
18651;SDS011;9455;54.302;10.124;2022-11-20T09:19:28;4.00;;;1.90;;
18651;SDS011;9455;54.302;10.124;2022-11-20T09:21:55;1.97;;;1.90;;
18651;SDS011;9455;54.302;10.124;2022-11-20T09:24:21;1.87;;;1.77;;
18651;SDS011;9455;54.302;10.124;2022-11-20T09:26:48;3.03;;;1.80;;
18651;SDS011;9455;54.302;10.124;2022-11-20T09:29:14;2.93;;;2.73;;
18651;SDS011;9455;54.302;10.124;2022-11-20T09:31:42;5.50;;;2.70;;
18651;SDS011;9455;54.302;10.124;2022-11-20T09:34:09;2.00;;;1.90;;
18651;SDS011;9455;54.302;10.124;2022-11-20T09:36:36;1.83;;;1.73;;
18651;SDS011;9455;54.302;10.124;2022-11-20T09:39:03;2.20;;;2.10;;
18651;SDS011;9455;54.302;10.124;2022-11-20T09:41:43;3.77;;;2.50;;
18651;SDS011;9455;54.302;10.124;2022-11-20T09:44:36;4.53;;;2.47;;
18651;SDS011;9455;54.302;10.124;2022-11-20T09:47:16;2.63;;;2.43;;
18651;SDS011;9455;54.302;10.124;2022-11-20T09:49:53;2.20;;;2.07;;
18651;SDS011;9455;54.302;10.124;2022-11-20T09:52:31;4.27;;;2.50;;
18651;SDS011;9455;54.302;10.124;2022-11-20T09:55:03;2.13;;;2.00;;
18651;SDS011;9455;54.302;10.124;2022-11-20T09:57:37;1.77;;;1.67;;
18651;SDS011;9455;54.302;10.124;2022-11-20T10:00:08;2.83;;;2.00;;
18651;SDS011;9455;54.302;10.124;2022-11-20T10:02:39;2.03;;;1.90;;
18651;SDS011;9455;54.302;10.124;2022-11-20T10:05:11;2.23;;;2.13;;
18651;SDS011;9455;54.302;10.124;2022-11-20T10:07:48;2.03;;;1.87;;
18651;SDS011;9455;54.302;10.124;2022-11-20T10:10:22;3.50;;;2.20;;
18651;SDS011;9455;54.302;10.124;2022-11-20T10:13:06;2.40;;;2.20;;
18651;SDS011;9455;54.302;10.124;2022-11-20T10:15:45;3.83;;;2.43;;
18651;SDS011;9455;54.302;10.124;2022-11-20T10:18:30;2.57;;;2.40;;
18651;SDS011;9455;54.302;10.124;2022-11-20T10:21:12;2.27;;;2.17;;
18651;SDS011;9455;54.302;10.124;2022-11-20T10:23:52;5.37;;;2.40;;
18651;SDS011;9455;54.302;10.124;2022-11-20T10:26:34;3.60;;;2.33;;
18651;SDS011;9455;54.302;10.124;2022-11-20T10:29:10;2.53;;;2.17;;
18651;SDS011;9455;54.302;10.124;2022-11-20T10:31:39;2.83;;;2.57;;
18651;SDS011;9455;54.302;10.124;2022-11-20T10:34:12;4.53;;;3.20;;
18651;SDS011;9455;54.302;10.124;2022-11-20T10:36:47;6.40;;;3.20;;
18651;SDS011;9455;54.302;10.124;2022-11-20T10:39:18;3.77;;;3.37;;
18651;SDS011;9455;54.302;10.124;2022-11-20T10:41:51;16.13;;;8.20;;
18651;SDS011;9455;54.302;10.124;2022-11-20T10:44:20;85.27;;;26.40;;
18651;SDS011;9455;54.302;10.124;2022-11-20T10:47:03;52.17;;;14.97;;
18651;SDS011;9455;54.302;10.124;2022-11-20T10:49:32;9.60;;;5.53;;
18651;SDS011;9455;54.302;10.124;2022-11-20T10:52:03;2.83;;;2.63;;
18651;SDS011;9455;54.302;10.124;2022-11-20T10:54:35;2.53;;;2.37;;
18651;SDS011;9455;54.302;10.124;2022-11-20T10:57:08;1.90;;;1.80;;
18651;SDS011;9455;54.302;10.124;2022-11-20T11:02:31;2.40;;;2.20;;
18651;SDS011;9455;54.302;10.124;2022-11-20T11:05:04;3.33;;;2.27;;
18651;SDS011;9455;54.302;10.124;2022-11-20T11:07:36;2.43;;;1.80;;
18651;SDS011;9455;54.302;10.124;2022-11-20T11:10:12;3.90;;;2.37;;
18651;SDS011;9455;54.302;10.124;2022-11-20T11:12:42;2.23;;;1.90;;
18651;SDS011;9455;54.302;10.124;2022-11-20T11:15:12;3.67;;;1.87;;
18651;SDS011;9455;54.302;10.124;2022-11-20T11:17:46;4.10;;;2.10;;
18651;SDS011;9455;54.302;10.124;2022-11-20T11:20:18;3.43;;;2.80;;
18651;SDS011;9455;54.302;10.124;2022-11-20T11:22:47;2.37;;;2.00;;
18651;SDS011;9455;54.302;10.124;2022-11-20T11:25:22;3.47;;;2.50;;
18651;SDS011;9455;54.302;10.124;2022-11-20T11:27:51;5.60;;;2.40;;
18651;SDS011;9455;54.302;10.124;2022-11-20T11:30:20;2.93;;;2.47;;
18651;SDS011;9455;54.302;10.124;2022-11-20T11:32:47;2.10;;;2.00;;
18651;SDS011;9455;54.302;10.124;2022-11-20T11:35:22;2.83;;;2.53;;
18651;SDS011;9455;54.302;10.124;2022-11-20T11:37:51;2.93;;;2.40;;
18651;SDS011;9455;54.302;10.124;2022-11-20T11:40:20;4.00;;;2.00;;
18651;SDS011;9455;54.302;10.124;2022-11-20T11:42:50;1.93;;;1.93;;
18651;SDS011;9455;54.302;10.124;2022-11-20T11:45:20;2.93;;;2.30;;
18651;SDS011;9455;54.302;10.124;2022-11-20T11:47:47;2.30;;;2.10;;
18651;SDS011;9455;54.302;10.124;2022-11-20T11:50:19;2.00;;;1.90;;
18651;SDS011;9455;54.302;10.124;2022-11-20T11:52:51;4.43;;;1.90;;
18651;SDS011;9455;54.302;10.124;2022-11-20T11:55:27;2.30;;;2.13;;
18651;SDS011;9455;54.302;10.124;2022-11-20T11:57:59;2.10;;;2.00;;
18651;SDS011;9455;54.302;10.124;2022-11-20T12:00:35;2.77;;;2.07;;
18651;SDS011;9455;54.302;10.124;2022-11-20T12:03:08;2.70;;;1.97;;
18651;SDS011;9455;54.302;10.124;2022-11-20T12:05:43;2.13;;;1.90;;
18651;SDS011;9455;54.302;10.124;2022-11-20T12:08:15;2.60;;;2.30;;
18651;SDS011;9455;54.302;10.124;2022-11-20T12:10:47;2.30;;;2.20;;
18651;SDS011;9455;54.302;10.124;2022-11-20T12:13:30;2.77;;;2.20;;
18651;SDS011;9455;54.302;10.124;2022-11-20T12:16:05;2.10;;;1.93;;
18651;SDS011;9455;54.302;10.124;2022-11-20T12:18:38;2.03;;;1.93;;
18651;SDS011;9455;54.302;10.124;2022-11-20T12:21:09;1.97;;;1.87;;
18651;SDS011;9455;54.302;10.124;2022-11-20T12:26:54;1.90;;;1.80;;
18651;SDS011;9455;54.302;10.124;2022-11-20T12:29:32;3.53;;;1.60;;
18651;SDS011;9455;54.302;10.124;2022-11-20T12:32:22;1.87;;;1.77;;
18651;SDS011;9455;54.302;10.124;2022-11-20T12:35:25;1.70;;;1.70;;
18651;SDS011;9455;54.302;10.124;2022-11-20T12:38:12;5.57;;;2.03;;
18651;SDS011;9455;54.302;10.124;2022-11-20T12:40:59;1.90;;;1.80;;
18651;SDS011;9455;54.302;10.124;2022-11-20T12:43:33;1.53;;;1.40;;
18651;SDS011;9455;54.302;10.124;2022-11-20T12:46:27;1.70;;;1.67;;
18651;SDS011;9455;54.302;10.124;2022-11-20T12:49:07;1.63;;;1.53;;
18651;SDS011;9455;54.302;10.124;2022-11-20T12:51:57;1.67;;;1.60;;
18651;SDS011;9455;54.302;10.124;2022-11-20T12:54:36;2.13;;;1.97;;
18651;SDS011;9455;54.302;10.124;2022-11-20T12:57:14;1.70;;;1.70;;
18651;SDS011;9455;54.302;10.124;2022-11-20T12:59:56;2.20;;;1.67;;
18651;SDS011;9455;54.302;10.124;2022-11-20T13:02:35;4.10;;;1.90;;
18651;SDS011;9455;54.302;10.124;2022-11-20T13:05:15;2.47;;;2.13;;
18651;SDS011;9455;54.302;10.124;2022-11-20T13:07:46;1.60;;;1.50;;
18651;SDS011;9455;54.302;10.124;2022-11-20T13:10:16;1.60;;;1.50;;
18651;SDS011;9455;54.302;10.124;2022-11-20T13:12:49;4.00;;;1.53;;
18651;SDS011;9455;54.302;10.124;2022-11-20T13:15:27;1.70;;;1.60;;
18651;SDS011;9455;54.302;10.124;2022-11-20T13:18:03;6.13;;;2.13;;
18651;SDS011;9455;54.302;10.124;2022-11-20T13:20:34;1.37;;;1.37;;
18651;SDS011;9455;54.302;10.124;2022-11-20T13:23:02;1.70;;;1.60;;
18651;SDS011;9455;54.302;10.124;2022-11-20T13:25:30;2.20;;;1.60;;
18651;SDS011;9455;54.302;10.124;2022-11-20T13:27:59;1.50;;;1.50;;
18651;SDS011;9455;54.302;10.124;2022-11-20T13:30:27;2.83;;;1.40;;
18651;SDS011;9455;54.302;10.124;2022-11-20T13:32:55;2.03;;;1.40;;
18651;SDS011;9455;54.302;10.124;2022-11-20T13:35:26;1.43;;;1.43;;
18651;SDS011;9455;54.302;10.124;2022-11-20T13:38:05;1.47;;;1.40;;
18651;SDS011;9455;54.302;10.124;2022-11-20T13:40:35;1.63;;;1.60;;
18651;SDS011;9455;54.302;10.124;2022-11-20T13:43:15;1.77;;;1.67;;
18651;SDS011;9455;54.302;10.124;2022-11-20T13:45:54;1.53;;;1.50;;
18651;SDS011;9455;54.302;10.124;2022-11-20T13:48:23;1.83;;;1.20;;
18651;SDS011;9455;54.302;10.124;2022-11-20T13:50:57;1.70;;;1.60;;
18651;SDS011;9455;54.302;10.124;2022-11-20T13:53:53;2.70;;;1.80;;
18651;SDS011;9455;54.302;10.124;2022-11-20T13:56:34;2.33;;;1.70;;
18651;SDS011;9455;54.302;10.124;2022-11-20T13:59:14;1.70;;;1.60;;
18651;SDS011;9455;54.302;10.124;2022-11-20T14:01:58;2.70;;;1.50;;
18651;SDS011;9455;54.302;10.124;2022-11-20T14:04:26;1.90;;;1.40;;
18651;SDS011;9455;54.302;10.124;2022-11-20T14:06:57;1.70;;;1.60;;
18651;SDS011;9455;54.302;10.124;2022-11-20T14:09:25;3.30;;;1.60;;
18651;SDS011;9455;54.302;10.124;2022-11-20T14:11:54;1.20;;;1.20;;
18651;SDS011;9455;54.302;10.124;2022-11-20T14:14:22;1.57;;;1.43;;
18651;SDS011;9455;54.302;10.124;2022-11-20T14:16:51;1.87;;;1.77;;
18651;SDS011;9455;54.302;10.124;2022-11-20T14:19:26;1.30;;;1.20;;
18651;SDS011;9455;54.302;10.124;2022-11-20T14:22:06;1.67;;;1.67;;
18651;SDS011;9455;54.302;10.124;2022-11-20T14:24:35;1.63;;;1.53;;
18651;SDS011;9455;54.302;10.124;2022-11-20T14:27:03;1.50;;;1.40;;
18651;SDS011;9455;54.302;10.124;2022-11-20T14:29:33;2.70;;;2.37;;
18651;SDS011;9455;54.302;10.124;2022-11-20T14:32:01;4.17;;;1.57;;
18651;SDS011;9455;54.302;10.124;2022-11-20T14:34:30;3.10;;;2.03;;
18651;SDS011;9455;54.302;10.124;2022-11-20T14:36:59;2.00;;;1.73;;
18651;SDS011;9455;54.302;10.124;2022-11-20T14:39:29;3.80;;;1.67;;
18651;SDS011;9455;54.302;10.124;2022-11-20T14:41:58;1.80;;;1.60;;
18651;SDS011;9455;54.302;10.124;2022-11-20T14:44:27;4.93;;;1.37;;
18651;SDS011;9455;54.302;10.124;2022-11-20T14:46:55;3.27;;;1.73;;
18651;SDS011;9455;54.302;10.124;2022-11-20T14:49:23;4.40;;;2.70;;
18651;SDS011;9455;54.302;10.124;2022-11-20T14:51:58;18.47;;;6.93;;
18651;SDS011;9455;54.302;10.124;2022-11-20T14:54:25;10.70;;;5.60;;
18651;SDS011;9455;54.302;10.124;2022-11-20T14:56:53;9.27;;;3.30;;
18651;SDS011;9455;54.302;10.124;2022-11-20T14:59:22;7.07;;;3.57;;
18651;SDS011;9455;54.302;10.124;2022-11-20T15:01:55;2.90;;;2.57;;
18651;SDS011;9455;54.302;10.124;2022-11-20T15:04:23;3.53;;;3.30;;
18651;SDS011;9455;54.302;10.124;2022-11-20T15:06:50;2.90;;;2.40;;
18651;SDS011;9455;54.302;10.124;2022-11-20T15:09:18;5.97;;;2.23;;